Terminal Aerodrome Forecast
Issued by NWS

Home | Current Version | Previous Version | Text Only | Print | Product List | Glossary On
Versions: 1 2 3 4 5 6 7 8 9 10 11 12 13 14 15 16 17 18 19 20 21 22 23 24 25 26 27
000
FTUS43 KDVN 261120
TAFCID
TAF
KCID 261120Z 2612/2712 12004KT P6SM VCTS OVC080CB
      TEMPO 2613/2617 3SM TSRA BKN035CB
     FM261700 13006KT P6SM BKN120
     FM262000 15008KT P6SM SCT050=

USA.gov is the U.S. government's official web portal to all federal, state and local government web resources and services.